sensor_id;sensor_type;location;lat;lon;timestamp;P1;durP1;ratioP1;P2;durP2;ratioP2
74528;SDS011;63009;52.584;5.932;2023-04-03T00:01:13;5.85;;;1.65;;
74528;SDS011;63009;52.584;5.932;2023-04-03T00:03:38;6.25;;;1.75;;
74528;SDS011;63009;52.584;5.932;2023-04-03T00:06:04;5.18;;;1.73;;
74528;SDS011;63009;52.584;5.932;2023-04-03T00:08:31;5.50;;;1.42;;
74528;SDS011;63009;52.584;5.932;2023-04-03T00:10:57;7.05;;;1.65;;
74528;SDS011;63009;52.584;5.932;2023-04-03T00:13:23;4.05;;;1.13;;
74528;SDS011;63009;52.584;5.932;2023-04-03T00:15:50;4.55;;;1.52;;
74528;SDS011;63009;52.584;5.932;2023-04-03T00:18:15;5.15;;;1.30;;
74528;SDS011;63009;52.584;5.932;2023-04-03T00:20:41;5.30;;;1.73;;
74528;SDS011;63009;52.584;5.932;2023-04-03T00:23:06;5.43;;;1.50;;
74528;SDS011;63009;52.584;5.932;2023-04-03T00:25:31;5.53;;;1.60;;
74528;SDS011;63009;52.584;5.932;2023-04-03T00:27:57;6.95;;;1.67;;
74528;SDS011;63009;52.584;5.932;2023-04-03T00:30:23;6.43;;;1.70;;
74528;SDS011;63009;52.584;5.932;2023-04-03T00:32:49;5.32;;;1.67;;
74528;SDS011;63009;52.584;5.932;2023-04-03T00:35:15;4.80;;;1.30;;
74528;SDS011;63009;52.584;5.932;2023-04-03T00:37:43;6.63;;;1.50;;
74528;SDS011;63009;52.584;5.932;2023-04-03T00:40:09;7.38;;;1.40;;
74528;SDS011;63009;52.584;5.932;2023-04-03T00:42:36;6.45;;;1.23;;
74528;SDS011;63009;52.584;5.932;2023-04-03T00:47:27;5.17;;;1.43;;
74528;SDS011;63009;52.584;5.932;2023-04-03T00:49:54;5.28;;;1.40;;
74528;SDS011;63009;52.584;5.932;2023-04-03T00:52:21;5.55;;;1.60;;
74528;SDS011;63009;52.584;5.932;2023-04-03T00:54:51;4.53;;;1.20;;
74528;SDS011;63009;52.584;5.932;2023-04-03T00:57:22;5.80;;;1.42;;
74528;SDS011;63009;52.584;5.932;2023-04-03T00:59:51;4.18;;;1.30;;
74528;SDS011;63009;52.584;5.932;2023-04-03T01:02:22;4.72;;;1.60;;
74528;SDS011;63009;52.584;5.932;2023-04-03T01:04:47;5.63;;;1.60;;
74528;SDS011;63009;52.584;5.932;2023-04-03T01:09:47;5.82;;;1.45;;
74528;SDS011;63009;52.584;5.932;2023-04-03T01:14:57;6.78;;;1.42;;
74528;SDS011;63009;52.584;5.932;2023-04-03T01:17:32;5.25;;;1.52;;
74528;SDS011;63009;52.584;5.932;2023-04-03T01:22:42;4.63;;;1.38;;
74528;SDS011;63009;52.584;5.932;2023-04-03T01:25:17;6.57;;;1.50;;
74528;SDS011;63009;52.584;5.932;2023-04-03T01:27:43;4.20;;;1.27;;
74528;SDS011;63009;52.584;5.932;2023-04-03T01:30:08;7.07;;;1.60;;
74528;SDS011;63009;52.584;5.932;2023-04-03T01:32:34;8.48;;;1.60;;
74528;SDS011;63009;52.584;5.932;2023-04-03T01:34:59;5.80;;;1.47;;
74528;SDS011;63009;52.584;5.932;2023-04-03T01:37:25;6.22;;;1.48;;
74528;SDS011;63009;52.584;5.932;2023-04-03T01:39:50;5.13;;;1.40;;
74528;SDS011;63009;52.584;5.932;2023-04-03T01:42:15;4.30;;;1.40;;
74528;SDS011;63009;52.584;5.932;2023-04-03T01:44:41;5.30;;;1.63;;
74528;SDS011;63009;52.584;5.932;2023-04-03T01:47:06;4.00;;;1.35;;
74528;SDS011;63009;52.584;5.932;2023-04-03T01:49:32;6.00;;;1.63;;
74528;SDS011;63009;52.584;5.932;2023-04-03T01:51:57;5.63;;;1.48;;
74528;SDS011;63009;52.584;5.932;2023-04-03T01:54:22;5.23;;;1.53;;
74528;SDS011;63009;52.584;5.932;2023-04-03T01:56:47;3.63;;;1.47;;
74528;SDS011;63009;52.584;5.932;2023-04-03T01:59:13;6.37;;;1.50;;
74528;SDS011;63009;52.584;5.932;2023-04-03T02:01:39;7.78;;;1.73;;
74528;SDS011;63009;52.584;5.932;2023-04-03T02:04:05;6.78;;;1.50;;
74528;SDS011;63009;52.584;5.932;2023-04-03T02:06:30;4.10;;;1.33;;
74528;SDS011;63009;52.584;5.932;2023-04-03T02:08:55;6.20;;;1.50;;
74528;SDS011;63009;52.584;5.932;2023-04-03T02:11:21;6.17;;;1.60;;
74528;SDS011;63009;52.584;5.932;2023-04-03T02:13:46;5.07;;;1.37;;
74528;SDS011;63009;52.584;5.932;2023-04-03T02:16:11;6.17;;;1.60;;
74528;SDS011;63009;52.584;5.932;2023-04-03T02:18:37;5.82;;;1.70;;
74528;SDS011;63009;52.584;5.932;2023-04-03T02:21:03;5.50;;;1.45;;
74528;SDS011;63009;52.584;5.932;2023-04-03T02:23:28;5.78;;;1.80;;
74528;SDS011;63009;52.584;5.932;2023-04-03T02:26:02;6.22;;;2.03;;
74528;SDS011;63009;52.584;5.932;2023-04-03T02:28:28;9.68;;;1.73;;
74528;SDS011;63009;52.584;5.932;2023-04-03T02:30:53;5.50;;;1.80;;
74528;SDS011;63009;52.584;5.932;2023-04-03T02:33:18;6.23;;;1.60;;
74528;SDS011;63009;52.584;5.932;2023-04-03T02:35:44;5.87;;;1.43;;
74528;SDS011;63009;52.584;5.932;2023-04-03T02:38:11;6.10;;;1.83;;
74528;SDS011;63009;52.584;5.932;2023-04-03T02:40:36;6.57;;;1.73;;
74528;SDS011;63009;52.584;5.932;2023-04-03T02:43:02;5.90;;;1.77;;
74528;SDS011;63009;52.584;5.932;2023-04-03T02:45:27;6.70;;;1.70;;
74528;SDS011;63009;52.584;5.932;2023-04-03T02:47:53;9.50;;;1.80;;
74528;SDS011;63009;52.584;5.932;2023-04-03T02:50:18;6.00;;;1.83;;
74528;SDS011;63009;52.584;5.932;2023-04-03T02:52:43;5.13;;;1.67;;
74528;SDS011;63009;52.584;5.932;2023-04-03T02:55:08;5.33;;;1.73;;
74528;SDS011;63009;52.584;5.932;2023-04-03T02:57:38;6.70;;;2.03;;
74528;SDS011;63009;52.584;5.932;2023-04-03T03:00:03;7.23;;;1.83;;
74528;SDS011;63009;52.584;5.932;2023-04-03T03:02:29;5.32;;;1.60;;
74528;SDS011;63009;52.584;5.932;2023-04-03T03:04:54;6.15;;;2.10;;
74528;SDS011;63009;52.584;5.932;2023-04-03T03:07:19;6.47;;;1.70;;
74528;SDS011;63009;52.584;5.932;2023-04-03T03:09:45;6.87;;;1.73;;
74528;SDS011;63009;52.584;5.932;2023-04-03T03:12:10;6.90;;;1.90;;
74528;SDS011;63009;52.584;5.932;2023-04-03T03:14:35;7.13;;;2.17;;
74528;SDS011;63009;52.584;5.932;2023-04-03T03:17:01;6.70;;;1.90;;
74528;SDS011;63009;52.584;5.932;2023-04-03T03:19:26;6.53;;;1.87;;
74528;SDS011;63009;52.584;5.932;2023-04-03T03:21:51;7.27;;;1.93;;
74528;SDS011;63009;52.584;5.932;2023-04-03T03:24:16;5.75;;;1.77;;
74528;SDS011;63009;52.584;5.932;2023-04-03T03:26:42;6.40;;;1.92;;
74528;SDS011;63009;52.584;5.932;2023-04-03T03:29:07;6.05;;;1.63;;
74528;SDS011;63009;52.584;5.932;2023-04-03T03:31:33;6.30;;;1.87;;
74528;SDS011;63009;52.584;5.932;2023-04-03T03:33:58;7.93;;;1.83;;
74528;SDS011;63009;52.584;5.932;2023-04-03T03:36:23;5.68;;;1.63;;
74528;SDS011;63009;52.584;5.932;2023-04-03T03:38:48;8.77;;;1.70;;
74528;SDS011;63009;52.584;5.932;2023-04-03T03:41:14;7.03;;;2.40;;
74528;SDS011;63009;52.584;5.932;2023-04-03T03:43:39;6.77;;;1.80;;
74528;SDS011;63009;52.584;5.932;2023-04-03T03:46:04;5.75;;;1.83;;
74528;SDS011;63009;52.584;5.932;2023-04-03T03:48:30;7.15;;;1.95;;
74528;SDS011;63009;52.584;5.932;2023-04-03T03:50:55;7.20;;;2.63;;
74528;SDS011;63009;52.584;5.932;2023-04-03T03:53:20;9.30;;;2.33;;
74528;SDS011;63009;52.584;5.932;2023-04-03T03:55:46;7.53;;;2.33;;
74528;SDS011;63009;52.584;5.932;2023-04-03T03:58:11;5.53;;;1.73;;
74528;SDS011;63009;52.584;5.932;2023-04-03T04:00:36;6.93;;;2.25;;
74528;SDS011;63009;52.584;5.932;2023-04-03T04:03:02;8.20;;;2.10;;
74528;SDS011;63009;52.584;5.932;2023-04-03T04:05:27;6.90;;;2.22;;
74528;SDS011;63009;52.584;5.932;2023-04-03T04:07:53;7.85;;;2.17;;
74528;SDS011;63009;52.584;5.932;2023-04-03T04:10:18;6.53;;;2.10;;
74528;SDS011;63009;52.584;5.932;2023-04-03T04:12:43;7.03;;;2.05;;
74528;SDS011;63009;52.584;5.932;2023-04-03T04:15:08;6.97;;;2.10;;
74528;SDS011;63009;52.584;5.932;2023-04-03T04:17:34;6.95;;;2.20;;
74528;SDS011;63009;52.584;5.932;2023-04-03T04:20:00;8.60;;;2.60;;
74528;SDS011;63009;52.584;5.932;2023-04-03T04:22:26;8.35;;;2.17;;
74528;SDS011;63009;52.584;5.932;2023-04-03T04:24:51;6.40;;;2.00;;
74528;SDS011;63009;52.584;5.932;2023-04-03T04:27:16;7.20;;;2.30;;
74528;SDS011;63009;52.584;5.932;2023-04-03T04:29:41;5.93;;;2.03;;
74528;SDS011;63009;52.584;5.932;2023-04-03T04:32:07;5.77;;;2.10;;
74528;SDS011;63009;52.584;5.932;2023-04-03T04:34:33;6.25;;;2.10;;
74528;SDS011;63009;52.584;5.932;2023-04-03T04:36:59;6.78;;;2.38;;
74528;SDS011;63009;52.584;5.932;2023-04-03T04:39:24;5.93;;;1.97;;
74528;SDS011;63009;52.584;5.932;2023-04-03T04:41:49;8.63;;;2.37;;
74528;SDS011;63009;52.584;5.932;2023-04-03T04:44:14;9.97;;;2.50;;
74528;SDS011;63009;52.584;5.932;2023-04-03T04:46:40;7.18;;;2.28;;
74528;SDS011;63009;52.584;5.932;2023-04-03T04:49:05;7.70;;;2.20;;
74528;SDS011;63009;52.584;5.932;2023-04-03T04:51:30;6.90;;;2.27;;
74528;SDS011;63009;52.584;5.932;2023-04-03T04:53:56;7.47;;;2.60;;
74528;SDS011;63009;52.584;5.932;2023-04-03T04:56:21;6.37;;;2.20;;
74528;SDS011;63009;52.584;5.932;2023-04-03T04:58:46;7.47;;;2.80;;
74528;SDS011;63009;52.584;5.932;2023-04-03T05:01:12;9.40;;;2.53;;
74528;SDS011;63009;52.584;5.932;2023-04-03T05:03:37;6.73;;;2.27;;
74528;SDS011;63009;52.584;5.932;2023-04-03T05:06:02;9.00;;;2.50;;
74528;SDS011;63009;52.584;5.932;2023-04-03T05:08:28;6.68;;;2.20;;
74528;SDS011;63009;52.584;5.932;2023-04-03T05:10:54;7.18;;;2.63;;
74528;SDS011;63009;52.584;5.932;2023-04-03T05:13:19;7.68;;;2.60;;
74528;SDS011;63009;52.584;5.932;2023-04-03T05:15:45;7.63;;;2.55;;
74528;SDS011;63009;52.584;5.932;2023-04-03T05:18:11;9.32;;;2.83;;
74528;SDS011;63009;52.584;5.932;2023-04-03T05:20:37;8.80;;;2.40;;
74528;SDS011;63009;52.584;5.932;2023-04-03T05:23:03;7.35;;;2.60;;
74528;SDS011;63009;52.584;5.932;2023-04-03T05:25:28;6.82;;;2.50;;
74528;SDS011;63009;52.584;5.932;2023-04-03T05:27:53;8.27;;;2.50;;
74528;SDS011;63009;52.584;5.932;2023-04-03T05:30:19;9.70;;;2.78;;
74528;SDS011;63009;52.584;5.932;2023-04-03T05:32:44;7.80;;;2.92;;
74528;SDS011;63009;52.584;5.932;2023-04-03T05:35:10;9.25;;;3.10;;
74528;SDS011;63009;52.584;5.932;2023-04-03T05:37:36;8.93;;;2.63;;
74528;SDS011;63009;52.584;5.932;2023-04-03T05:40:02;10.27;;;2.47;;
74528;SDS011;63009;52.584;5.932;2023-04-03T05:42:28;8.60;;;2.38;;
74528;SDS011;63009;52.584;5.932;2023-04-03T05:44:54;11.55;;;2.83;;
74528;SDS011;63009;52.584;5.932;2023-04-03T05:47:19;10.17;;;3.03;;
74528;SDS011;63009;52.584;5.932;2023-04-03T05:49:45;8.30;;;2.50;;
74528;SDS011;63009;52.584;5.932;2023-04-03T05:52:17;9.53;;;2.53;;
74528;SDS011;63009;52.584;5.932;2023-04-03T05:54:44;7.63;;;2.60;;
74528;SDS011;63009;52.584;5.932;2023-04-03T05:57:12;9.30;;;2.83;;
74528;SDS011;63009;52.584;5.932;2023-04-03T05:59:38;7.15;;;2.40;;
74528;SDS011;63009;52.584;5.932;2023-04-03T06:02:03;6.83;;;2.60;;
74528;SDS011;63009;52.584;5.932;2023-04-03T06:04:28;9.10;;;2.73;;
74528;SDS011;63009;52.584;5.932;2023-04-03T06:06:57;8.47;;;2.67;;
74528;SDS011;63009;52.584;5.932;2023-04-03T06:09:23;8.95;;;2.75;;
74528;SDS011;63009;52.584;5.932;2023-04-03T06:11:51;7.65;;;2.38;;
74528;SDS011;63009;52.584;5.932;2023-04-03T06:14:17;7.93;;;2.47;;
74528;SDS011;63009;52.584;5.932;2023-04-03T06:16:42;11.55;;;2.90;;
74528;SDS011;63009;52.584;5.932;2023-04-03T06:19:08;8.30;;;2.53;;
74528;SDS011;63009;52.584;5.932;2023-04-03T06:21:34;9.07;;;2.35;;
74528;SDS011;63009;52.584;5.932;2023-04-03T06:24:00;6.85;;;2.50;;
74528;SDS011;63009;52.584;5.932;2023-04-03T06:26:27;6.32;;;2.03;;
74528;SDS011;63009;52.584;5.932;2023-04-03T06:28:52;6.90;;;2.00;;
74528;SDS011;63009;52.584;5.932;2023-04-03T06:31:17;9.03;;;2.37;;
74528;SDS011;63009;52.584;5.932;2023-04-03T06:33:42;6.23;;;2.20;;
74528;SDS011;63009;52.584;5.932;2023-04-03T06:36:09;7.30;;;2.00;;
74528;SDS011;63009;52.584;5.932;2023-04-03T06:38:36;7.47;;;2.10;;
74528;SDS011;63009;52.584;5.932;2023-04-03T06:41:01;8.40;;;2.43;;
74528;SDS011;63009;52.584;5.932;2023-04-03T06:43:27;8.38;;;3.33;;
74528;SDS011;63009;52.584;5.932;2023-04-03T06:45:52;5.70;;;1.90;;
74528;SDS011;63009;52.584;5.932;2023-04-03T06:48:17;6.90;;;2.15;;
74528;SDS011;63009;52.584;5.932;2023-04-03T06:50:43;7.25;;;2.63;;
74528;SDS011;63009;52.584;5.932;2023-04-03T06:53:09;7.93;;;2.40;;
74528;SDS011;63009;52.584;5.932;2023-04-03T06:55:35;11.90;;;2.58;;
74528;SDS011;63009;52.584;5.932;2023-04-03T06:58:00;7.13;;;2.22;;
74528;SDS011;63009;52.584;5.932;2023-04-03T07:00:26;9.43;;;2.50;;
74528;SDS011;63009;52.584;5.932;2023-04-03T07:02:52;7.03;;;1.98;;
74528;SDS011;63009;52.584;5.932;2023-04-03T07:05:18;7.15;;;2.53;;
74528;SDS011;63009;52.584;5.932;2023-04-03T07:07:43;6.63;;;2.03;;
74528;SDS011;63009;52.584;5.932;2023-04-03T07:10:08;7.32;;;2.42;;
74528;SDS011;63009;52.584;5.932;2023-04-03T07:12:34;7.35;;;2.40;;
74528;SDS011;63009;52.584;5.932;2023-04-03T07:15:00;7.13;;;2.08;;
74528;SDS011;63009;52.584;5.932;2023-04-03T07:17:26;7.93;;;2.20;;
74528;SDS011;63009;52.584;5.932;2023-04-03T07:19:51;8.35;;;2.45;;
74528;SDS011;63009;52.584;5.932;2023-04-03T07:22:17;6.68;;;2.20;;
74528;SDS011;63009;52.584;5.932;2023-04-03T07:24:42;7.70;;;2.58;;
74528;SDS011;63009;52.584;5.932;2023-04-03T07:27:09;7.93;;;2.88;;
74528;SDS011;63009;52.584;5.932;2023-04-03T07:29:35;11.00;;;2.65;;
74528;SDS011;63009;52.584;5.932;2023-04-03T07:32:01;10.70;;;2.50;;
74528;SDS011;63009;52.584;5.932;2023-04-03T07:34:27;8.57;;;2.55;;
74528;SDS011;63009;52.584;5.932;2023-04-03T07:36:52;5.97;;;1.85;;
74528;SDS011;63009;52.584;5.932;2023-04-03T07:39:18;6.65;;;2.10;;
74528;SDS011;63009;52.584;5.932;2023-04-03T07:41:43;6.37;;;1.73;;
74528;SDS011;63009;52.584;5.932;2023-04-03T07:44:08;6.37;;;1.90;;
74528;SDS011;63009;52.584;5.932;2023-04-03T07:46:34;7.43;;;1.60;;
74528;SDS011;63009;52.584;5.932;2023-04-03T07:49:00;7.18;;;1.92;;
74528;SDS011;63009;52.584;5.932;2023-04-03T07:51:25;7.20;;;1.80;;
74528;SDS011;63009;52.584;5.932;2023-04-03T07:53:51;7.15;;;2.00;;
74528;SDS011;63009;52.584;5.932;2023-04-03T07:56:17;6.25;;;1.63;;
74528;SDS011;63009;52.584;5.932;2023-04-03T07:58:42;6.30;;;1.80;;
74528;SDS011;63009;52.584;5.932;2023-04-03T08:01:09;6.60;;;1.73;;
74528;SDS011;63009;52.584;5.932;2023-04-03T08:03:34;7.25;;;1.83;;
74528;SDS011;63009;52.584;5.932;2023-04-03T08:06:03;6.73;;;1.90;;
74528;SDS011;63009;52.584;5.932;2023-04-03T08:08:30;4.93;;;1.48;;
74528;SDS011;63009;52.584;5.932;2023-04-03T08:10:57;4.93;;;1.55;;
74528;SDS011;63009;52.584;5.932;2023-04-03T08:13:23;5.63;;;1.50;;
74528;SDS011;63009;52.584;5.932;2023-04-03T08:15:49;5.93;;;1.60;;
74528;SDS011;63009;52.584;5.932;2023-04-03T08:18:15;7.35;;;1.50;;
74528;SDS011;63009;52.584;5.932;2023-04-03T08:20:41;5.88;;;1.73;;
74528;SDS011;63009;52.584;5.932;2023-04-03T08:23:06;5.90;;;1.90;;
74528;SDS011;63009;52.584;5.932;2023-04-03T08:25:33;4.22;;;1.38;;
74528;SDS011;63009;52.584;5.932;2023-04-03T08:28:02;5.82;;;1.60;;
74528;SDS011;63009;52.584;5.932;2023-04-03T08:30:27;5.17;;;1.50;;
74528;SDS011;63009;52.584;5.932;2023-04-03T08:32:52;5.33;;;1.60;;
74528;SDS011;63009;52.584;5.932;2023-04-03T08:35:18;4.45;;;1.17;;
74528;SDS011;63009;52.584;5.932;2023-04-03T08:37:44;6.93;;;1.35;;
74528;SDS011;63009;52.584;5.932;2023-04-03T08:40:13;4.93;;;1.30;;
74528;SDS011;63009;52.584;5.932;2023-04-03T08:50:47;5.40;;;1.38;;
74528;SDS011;63009;52.584;5.932;2023-04-03T08:53:25;5.57;;;1.30;;
74528;SDS011;63009;52.584;5.932;2023-04-03T08:55:53;7.22;;;1.63;;
74528;SDS011;63009;52.584;5.932;2023-04-03T08:58:28;5.97;;;1.30;;
74528;SDS011;63009;52.584;5.932;2023-04-03T09:00:56;4.30;;;1.20;;
74528;SDS011;63009;52.584;5.932;2023-04-03T09:03:28;6.68;;;1.40;;
74528;SDS011;63009;52.584;5.932;2023-04-03T09:17:07;4.57;;;1.10;;
74528;SDS011;63009;52.584;5.932;2023-04-03T09:19:41;3.60;;;1.05;;
74528;SDS011;63009;52.584;5.932;2023-04-03T09:22:26;5.30;;;1.13;;
74528;SDS011;63009;52.584;5.932;2023-04-03T09:25:02;3.35;;;1.00;;
74528;SDS011;63009;52.584;5.932;2023-04-03T09:27:40;4.40;;;1.33;;
74528;SDS011;63009;52.584;5.932;2023-04-03T09:30:11;4.28;;;0.88;;
74528;SDS011;63009;52.584;5.932;2023-04-03T09:32:38;3.47;;;0.90;;
74528;SDS011;63009;52.584;5.932;2023-04-03T09:35:09;4.40;;;0.90;;
74528;SDS011;63009;52.584;5.932;2023-04-03T09:37:58;2.28;;;0.80;;
74528;SDS011;63009;52.584;5.932;2023-04-03T09:42:51;3.60;;;0.90;;
74528;SDS011;63009;52.584;5.932;2023-04-03T09:45:25;2.30;;;0.68;;
74528;SDS011;63009;52.584;5.932;2023-04-03T09:52:58;4.55;;;1.33;;
74528;SDS011;63009;52.584;5.932;2023-04-03T09:55:24;2.83;;;0.90;;
74528;SDS011;63009;52.584;5.932;2023-04-03T09:57:55;3.90;;;0.88;;
74528;SDS011;63009;52.584;5.932;2023-04-03T10:00:26;2.90;;;0.88;;
74528;SDS011;63009;52.584;5.932;2023-04-03T10:02:55;3.55;;;1.23;;
74528;SDS011;63009;52.584;5.932;2023-04-03T10:07:56;3.10;;;1.10;;
74528;SDS011;63009;52.584;5.932;2023-04-03T10:10:36;5.30;;;1.40;;
74528;SDS011;63009;52.584;5.932;2023-04-03T10:13:03;3.28;;;0.90;;
74528;SDS011;63009;52.584;5.932;2023-04-03T10:15:32;4.65;;;1.40;;
74528;SDS011;63009;52.584;5.932;2023-04-03T10:18:06;5.15;;;1.35;;
74528;SDS011;63009;52.584;5.932;2023-04-03T10:21:06;3.92;;;0.80;;
74528;SDS011;63009;52.584;5.932;2023-04-03T10:24:09;3.40;;;1.00;;
74528;SDS011;63009;52.584;5.932;2023-04-03T10:26:50;3.22;;;0.90;;
74528;SDS011;63009;52.584;5.932;2023-04-03T10:34:45;3.83;;;1.23;;
74528;SDS011;63009;52.584;5.932;2023-04-03T10:37:29;3.95;;;1.00;;
74528;SDS011;63009;52.584;5.932;2023-04-03T10:40:04;1.98;;;0.93;;
74528;SDS011;63009;52.584;5.932;2023-04-03T10:42:59;3.25;;;0.85;;
74528;SDS011;63009;52.584;5.932;2023-04-03T10:45:36;2.65;;;1.00;;
74528;SDS011;63009;52.584;5.932;2023-04-03T10:51:12;2.90;;;0.90;;
74528;SDS011;63009;52.584;5.932;2023-04-03T10:53:56;4.72;;;1.30;;
74528;SDS011;63009;52.584;5.932;2023-04-03T10:56:39;5.07;;;1.13;;
74528;SDS011;63009;52.584;5.932;2023-04-03T10:59:18;2.83;;;1.02;;
74528;SDS011;63009;52.584;5.932;2023-04-03T11:01:54;3.85;;;0.98;;
74528;SDS011;63009;52.584;5.932;2023-04-03T11:04:23;4.05;;;1.17;;
74528;SDS011;63009;52.584;5.932;2023-04-03T11:06:59;4.70;;;1.42;;
74528;SDS011;63009;52.584;5.932;2023-04-03T11:09:30;4.00;;;1.02;;
74528;SDS011;63009;52.584;5.932;2023-04-03T11:12:46;8.77;;;2.55;;
74528;SDS011;63009;52.584;5.932;2023-04-03T11:14:56;6.80;;;1.75;;
74528;SDS011;63009;52.584;5.932;2023-04-03T11:17:27;4.03;;;1.48;;
74528;SDS011;63009;52.584;5.932;2023-04-03T11:20:03;4.75;;;1.70;;
74528;SDS011;63009;52.584;5.932;2023-04-03T11:22:36;4.50;;;1.30;;
74528;SDS011;63009;52.584;5.932;2023-04-03T11:27:38;4.82;;;1.40;;
74528;SDS011;63009;52.584;5.932;2023-04-03T11:30:12;4.13;;;1.20;;
74528;SDS011;63009;52.584;5.932;2023-04-03T11:35:25;5.10;;;1.20;;
74528;SDS011;63009;52.584;5.932;2023-04-03T11:37:51;4.10;;;1.10;;
74528;SDS011;63009;52.584;5.932;2023-04-03T11:40:26;5.10;;;1.40;;
74528;SDS011;63009;52.584;5.932;2023-04-03T11:43:40;3.17;;;1.00;;
74528;SDS011;63009;52.584;5.932;2023-04-03T11:45:51;4.25;;;1.52;;
74528;SDS011;63009;52.584;5.932;2023-04-03T11:50:58;2.88;;;0.98;;
74528;SDS011;63009;52.584;5.932;2023-04-03T11:53:32;3.15;;;1.00;;
74528;SDS011;63009;52.584;5.932;2023-04-03T11:55:59;3.95;;;1.17;;
74528;SDS011;63009;52.584;5.932;2023-04-03T11:58:30;6.88;;;1.55;;
74528;SDS011;63009;52.584;5.932;2023-04-03T12:00:57;5.45;;;1.00;;
74528;SDS011;63009;52.584;5.932;2023-04-03T12:13:37;4.90;;;1.10;;
74528;SDS011;63009;52.584;5.932;2023-04-03T12:21:17;3.10;;;1.20;;
74528;SDS011;63009;52.584;5.932;2023-04-03T12:26:48;5.43;;;0.98;;
74528;SDS011;63009;52.584;5.932;2023-04-03T12:29:26;3.05;;;0.98;;
74528;SDS011;63009;52.584;5.932;2023-04-03T12:40:48;4.05;;;1.10;;
74528;SDS011;63009;52.584;5.932;2023-04-03T12:43:31;4.32;;;1.38;;
74528;SDS011;63009;52.584;5.932;2023-04-03T12:48:33;3.53;;;1.30;;
74528;SDS011;63009;52.584;5.932;2023-04-03T12:51:03;3.55;;;1.08;;
74528;SDS011;63009;52.584;5.932;2023-04-03T12:53:36;2.70;;;1.00;;
74528;SDS011;63009;52.584;5.932;2023-04-03T12:59:13;3.38;;;1.00;;
74528;SDS011;63009;52.584;5.932;2023-04-03T13:01:38;5.80;;;1.10;;
74528;SDS011;63009;52.584;5.932;2023-04-03T13:04:04;4.65;;;1.20;;
74528;SDS011;63009;52.584;5.932;2023-04-03T13:06:39;3.97;;;1.02;;
74528;SDS011;63009;52.584;5.932;2023-04-03T13:09:17;8.43;;;1.50;;
74528;SDS011;63009;52.584;5.932;2023-04-03T13:11:46;4.55;;;1.02;;
74528;SDS011;63009;52.584;5.932;2023-04-03T13:14:18;4.22;;;0.98;;
74528;SDS011;63009;52.584;5.932;2023-04-03T13:16:56;5.63;;;1.10;;
74528;SDS011;63009;52.584;5.932;2023-04-03T13:19:26;5.03;;;1.08;;
74528;SDS011;63009;52.584;5.932;2023-04-03T13:22:03;5.80;;;1.55;;
74528;SDS011;63009;52.584;5.932;2023-04-03T13:24:31;4.68;;;1.00;;
74528;SDS011;63009;52.584;5.932;2023-04-03T13:26:59;5.72;;;1.25;;
74528;SDS011;63009;52.584;5.932;2023-04-03T13:29:28;3.67;;;1.02;;
74528;SDS011;63009;52.584;5.932;2023-04-03T13:31:55;5.88;;;1.38;;
74528;SDS011;63009;52.584;5.932;2023-04-03T13:34:24;5.68;;;1.33;;
74528;SDS011;63009;52.584;5.932;2023-04-03T13:41:45;3.73;;;1.13;;
74528;SDS011;63009;52.584;5.932;2023-04-03T13:46:46;5.10;;;1.10;;
74528;SDS011;63009;52.584;5.932;2023-04-03T13:49:19;5.63;;;1.17;;
74528;SDS011;63009;52.584;5.932;2023-04-03T13:51:53;3.40;;;1.27;;
74528;SDS011;63009;52.584;5.932;2023-04-03T13:56:52;3.47;;;1.00;;
74528;SDS011;63009;52.584;5.932;2023-04-03T13:59:24;4.47;;;1.10;;
74528;SDS011;63009;52.584;5.932;2023-04-03T14:04:29;4.70;;;1.10;;
74528;SDS011;63009;52.584;5.932;2023-04-03T14:06:56;3.60;;;1.20;;
74528;SDS011;63009;52.584;5.932;2023-04-03T14:09:22;6.10;;;1.95;;
74528;SDS011;63009;52.584;5.932;2023-04-03T14:11:49;4.57;;;1.33;;
74528;SDS011;63009;52.584;5.932;2023-04-03T14:14:19;3.58;;;1.15;;
74528;SDS011;63009;52.584;5.932;2023-04-03T14:16:48;5.20;;;1.27;;
74528;SDS011;63009;52.584;5.932;2023-04-03T14:19:22;5.35;;;1.23;;
74528;SDS011;63009;52.584;5.932;2023-04-03T14:21:50;4.40;;;1.20;;
74528;SDS011;63009;52.584;5.932;2023-04-03T14:24:16;5.70;;;1.20;;
74528;SDS011;63009;52.584;5.932;2023-04-03T14:26:42;4.07;;;1.10;;
74528;SDS011;63009;52.584;5.932;2023-04-03T14:29:09;3.50;;;1.10;;
74528;SDS011;63009;52.584;5.932;2023-04-03T14:31:35;6.35;;;1.17;;
74528;SDS011;63009;52.584;5.932;2023-04-03T14:34:01;3.90;;;1.17;;
74528;SDS011;63009;52.584;5.932;2023-04-03T14:36:27;2.97;;;1.15;;
74528;SDS011;63009;52.584;5.932;2023-04-03T14:38:54;7.88;;;1.25;;
74528;SDS011;63009;52.584;5.932;2023-04-03T14:41:21;5.15;;;1.20;;
74528;SDS011;63009;52.584;5.932;2023-04-03T14:43:47;2.78;;;1.10;;
74528;SDS011;63009;52.584;5.932;2023-04-03T14:46:17;4.38;;;1.20;;
74528;SDS011;63009;52.584;5.932;2023-04-03T14:48:43;5.10;;;1.58;;
74528;SDS011;63009;52.584;5.932;2023-04-03T14:51:11;6.20;;;1.30;;
74528;SDS011;63009;52.584;5.932;2023-04-03T14:53:37;5.35;;;1.30;;
74528;SDS011;63009;52.584;5.932;2023-04-03T14:56:05;5.88;;;1.33;;
74528;SDS011;63009;52.584;5.932;2023-04-03T14:58:36;4.15;;;1.20;;
74528;SDS011;63009;52.584;5.932;2023-04-03T15:01:02;7.03;;;1.50;;
74528;SDS011;63009;52.584;5.932;2023-04-03T15:03:27;6.07;;;1.50;;
74528;SDS011;63009;52.584;5.932;2023-04-03T15:05:52;4.73;;;1.70;;
74528;SDS011;63009;52.584;5.932;2023-04-03T15:08:21;5.17;;;1.40;;
74528;SDS011;63009;52.584;5.932;2023-04-03T15:10:49;4.00;;;1.27;;
74528;SDS011;63009;52.584;5.932;2023-04-03T15:13:17;5.18;;;1.20;;
74528;SDS011;63009;52.584;5.932;2023-04-03T15:15:43;5.97;;;1.23;;
74528;SDS011;63009;52.584;5.932;2023-04-03T15:18:10;5.78;;;1.40;;
74528;SDS011;63009;52.584;5.932;2023-04-03T15:20:41;4.82;;;1.30;;
74528;SDS011;63009;52.584;5.932;2023-04-03T15:23:08;4.97;;;2.00;;
74528;SDS011;63009;52.584;5.932;2023-04-03T15:25:35;5.93;;;1.55;;
74528;SDS011;63009;52.584;5.932;2023-04-03T15:28:00;5.07;;;1.13;;
74528;SDS011;63009;52.584;5.932;2023-04-03T15:30:26;7.00;;;1.60;;
74528;SDS011;63009;52.584;5.932;2023-04-03T15:32:51;6.50;;;2.00;;
74528;SDS011;63009;52.584;5.932;2023-04-03T15:35:18;6.78;;;1.90;;
74528;SDS011;63009;52.584;5.932;2023-04-03T15:37:43;5.30;;;1.42;;
74528;SDS011;63009;52.584;5.932;2023-04-03T15:40:09;3.70;;;1.10;;
74528;SDS011;63009;52.584;5.932;2023-04-03T15:42:34;5.60;;;1.33;;
74528;SDS011;63009;52.584;5.932;2023-04-03T15:45:00;11.15;;;1.92;;
74528;SDS011;63009;52.584;5.932;2023-04-03T15:47:25;5.82;;;1.40;;
74528;SDS011;63009;52.584;5.932;2023-04-03T15:49:52;6.07;;;1.52;;
74528;SDS011;63009;52.584;5.932;2023-04-03T15:52:19;5.57;;;1.35;;
74528;SDS011;63009;52.584;5.932;2023-04-03T15:54:44;7.75;;;1.88;;
74528;SDS011;63009;52.584;5.932;2023-04-03T15:57:10;5.65;;;1.50;;
74528;SDS011;63009;52.584;5.932;2023-04-03T15:59:35;5.73;;;1.40;;
74528;SDS011;63009;52.584;5.932;2023-04-03T16:02:00;6.00;;;1.47;;
74528;SDS011;63009;52.584;5.932;2023-04-03T16:04:28;6.25;;;1.42;;
74528;SDS011;63009;52.584;5.932;2023-04-03T16:06:54;5.80;;;1.30;;
74528;SDS011;63009;52.584;5.932;2023-04-03T16:09:20;6.20;;;1.50;;
74528;SDS011;63009;52.584;5.932;2023-04-03T16:11:45;5.90;;;1.67;;
74528;SDS011;63009;52.584;5.932;2023-04-03T16:14:10;5.00;;;1.33;;
74528;SDS011;63009;52.584;5.932;2023-04-03T16:16:36;5.75;;;1.60;;
74528;SDS011;63009;52.584;5.932;2023-04-03T16:19:02;5.25;;;1.55;;
74528;SDS011;63009;52.584;5.932;2023-04-03T16:21:29;6.78;;;1.60;;
74528;SDS011;63009;52.584;5.932;2023-04-03T16:23:58;6.47;;;1.35;;
74528;SDS011;63009;52.584;5.932;2023-04-03T16:26:24;4.78;;;1.55;;
74528;SDS011;63009;52.584;5.932;2023-04-03T16:28:50;5.07;;;1.63;;
74528;SDS011;63009;52.584;5.932;2023-04-03T16:31:16;7.30;;;1.70;;
74528;SDS011;63009;52.584;5.932;2023-04-03T16:33:41;6.70;;;1.95;;